createdAt,value
2023-02-23T00:02:03.806Z,82.26
2023-02-23T00:04:31.994Z,81.09
2023-02-23T00:06:59.847Z,79.36
2023-02-23T00:09:35.098Z,79.79
2023-02-23T00:12:09.663Z,81.36
2023-02-23T00:14:38.716Z,81.75
2023-02-23T00:17:14.934Z,82.03
2023-02-23T00:19:43.547Z,79.59
2023-02-23T00:22:14.535Z,81.48
2023-02-23T00:24:42.789Z,81.93
2023-02-23T00:27:17.357Z,82.41
2023-02-23T00:29:49.215Z,83.33
2023-02-23T00:32:19.952Z,82.84
2023-02-23T00:34:49.888Z,81.87
2023-02-23T00:37:19.494Z,83.00
2023-02-23T00:39:47.394Z,82.43
2023-02-23T00:42:15.837Z,81.30
2023-02-23T00:44:43.655Z,82.07
2023-02-23T00:47:11.496Z,81.88
2023-02-23T00:49:39.348Z,81.59
2023-02-23T00:52:07.640Z,81.88
2023-02-23T00:54:35.522Z,81.61
2023-02-23T00:57:04.079Z,83.03
2023-02-23T00:59:31.952Z,82.36
2023-02-23T01:01:59.942Z,81.61
2023-02-23T01:04:27.872Z,82.23
2023-02-23T01:06:55.732Z,82.26
2023-02-23T01:09:28.357Z,82.76
2023-02-23T01:11:57.734Z,82.75
2023-02-23T01:14:26.129Z,82.89
2023-02-23T01:16:55.014Z,81.82
2023-02-23T01:19:22.926Z,81.32
2023-02-23T01:21:50.899Z,82.40
2023-02-23T01:24:18.727Z,83.54
2023-02-23T01:26:47.624Z,83.48
2023-02-23T01:29:17.941Z,82.24
2023-02-23T01:31:51.154Z,81.62
2023-02-23T01:34:21.652Z,81.67
2023-02-23T01:36:49.997Z,81.79
2023-02-23T01:39:20.709Z,82.39
2023-02-23T01:41:51.705Z,82.49
2023-02-23T01:44:19.399Z,81.86
2023-02-23T01:46:49.262Z,81.76
2023-02-23T01:49:25.643Z,82.67
2023-02-23T01:52:13.336Z,82.24
2023-02-23T01:54:53.553Z,82.43
2023-02-23T01:57:27.120Z,83.19
2023-02-23T01:59:55.661Z,82.86
2023-02-23T02:02:33.357Z,83.12
2023-02-23T02:05:04.567Z,80.84
2023-02-23T02:07:35.213Z,81.41
2023-02-23T02:10:13.690Z,82.42
2023-02-23T02:12:56.223Z,81.69
2023-02-23T02:15:30.073Z,81.24
2023-02-23T02:18:43.794Z,81.28
2023-02-23T02:21:51.884Z,81.24
2023-02-23T02:25:11.119Z,80.20
2023-02-23T02:28:22.249Z,81.04
2023-02-23T02:31:43.514Z,80.97
2023-02-23T02:35:18.890Z,81.31
2023-02-23T02:38:34.800Z,79.73
2023-02-23T02:41:20.579Z,81.09
2023-02-23T02:48:12.009Z,83.38
2023-02-23T02:51:04.383Z,81.91
2023-02-23T02:53:58.091Z,81.07
2023-02-23T02:56:27.162Z,80.31
2023-02-23T02:58:55.777Z,79.31
2023-02-23T03:01:42.190Z,80.43
2023-02-23T03:04:43.853Z,82.30
2023-02-23T03:07:45.935Z,81.57
2023-02-23T03:11:22.464Z,80.75
2023-02-23T03:15:04.961Z,81.50
2023-02-23T03:18:06.441Z,80.97
2023-02-23T03:20:52.660Z,81.41
2023-02-23T03:24:05.841Z,82.62
2023-02-23T03:27:06.306Z,80.94
2023-02-23T03:30:22.166Z,82.71
2023-02-23T03:33:23.929Z,81.81
2023-02-23T03:36:26.808Z,82.11
2023-02-23T03:39:59.665Z,80.95
2023-02-23T03:42:54.203Z,81.86
2023-02-23T03:45:44.285Z,81.35
2023-02-23T03:48:34.906Z,80.68
2023-02-23T03:51:27.636Z,81.94
2023-02-23T03:54:37.621Z,82.99
2023-02-23T03:57:30.998Z,82.08
2023-02-23T04:00:23.992Z,79.94
2023-02-23T04:03:13.117Z,81.19
2023-02-23T04:06:02.496Z,82.64
2023-02-23T04:08:56.669Z,82.26
2023-02-23T04:12:09.511Z,81.38
2023-02-23T04:14:59.699Z,81.23
2023-02-23T04:17:32.439Z,82.34
2023-02-23T04:20:00.677Z,80.72
2023-02-23T04:22:28.576Z,80.84
2023-02-23T04:24:56.817Z,81.52
2023-02-23T04:27:26.019Z,82.59
2023-02-23T04:29:53.918Z,81.67
2023-02-23T04:32:21.955Z,82.25
2023-02-23T04:34:50.384Z,82.16
2023-02-23T04:37:18.502Z,82.09
2023-02-23T04:39:49.677Z,82.77
2023-02-23T04:42:19.113Z,82.12
2023-02-23T04:44:47.400Z,81.93
2023-02-23T04:47:16.572Z,80.92
2023-02-23T04:49:44.811Z,80.87
2023-02-23T04:52:12.728Z,80.64
2023-02-23T04:54:41.760Z,81.84
2023-02-23T04:57:10.230Z,79.88
2023-02-23T04:59:38.197Z,81.83
2023-02-23T05:02:06.403Z,82.48
2023-02-23T05:04:35.380Z,82.61
2023-02-23T05:07:04.528Z,80.79
2023-02-23T05:09:33.339Z,82.15
2023-02-23T05:12:01.548Z,82.83
2023-02-23T05:14:30.157Z,82.18
2023-02-23T05:16:58.059Z,82.31
2023-02-23T05:19:27.311Z,83.16
2023-02-23T05:21:55.208Z,82.24
2023-02-23T05:24:23.037Z,82.01
2023-02-23T05:26:51.073Z,82.33
2023-02-23T05:29:19.238Z,83.25
2023-02-23T05:31:48.489Z,83.18
2023-02-23T05:34:16.891Z,81.76
2023-02-23T05:36:44.746Z,81.35
2023-02-23T05:39:12.625Z,82.64
2023-02-23T05:41:42.894Z,81.24
2023-02-23T05:44:10.778Z,81.23
2023-02-23T05:46:39.235Z,81.10
2023-02-23T05:49:07.232Z,81.57
2023-02-23T05:51:35.453Z,81.01
2023-02-23T05:54:03.423Z,80.37
2023-02-23T05:56:31.360Z,80.06
2023-02-23T05:58:59.788Z,80.01
2023-02-23T06:01:28.189Z,80.50
2023-02-23T06:03:56.629Z,81.26
2023-02-23T06:06:25.629Z,81.18
2023-02-23T06:08:54.614Z,81.69
2023-02-23T06:11:22.852Z,81.92
2023-02-23T06:13:50.824Z,81.34
2023-02-23T06:16:18.880Z,81.36
2023-02-23T06:18:47.053Z,82.37
2023-02-23T06:21:14.973Z,81.44
2023-02-23T06:23:43.029Z,80.77
2023-02-23T06:26:11.023Z,81.00
2023-02-23T06:28:38.887Z,81.23
2023-02-23T06:31:06.841Z,79.97
2023-02-23T06:33:35.128Z,80.84
2023-02-23T06:36:03.095Z,81.25
2023-02-23T06:38:31.020Z,80.88
2023-02-23T06:40:58.926Z,80.40
2023-02-23T06:43:26.918Z,80.47
2023-02-23T06:45:55.635Z,80.18
2023-02-23T06:48:23.469Z,81.02
2023-02-23T06:50:51.338Z,81.50
2023-02-23T06:53:21.411Z,80.62
2023-02-23T06:55:49.369Z,80.65
2023-02-23T06:58:17.684Z,80.76
2023-02-23T07:00:46.780Z,80.69
2023-02-23T07:03:15.481Z,80.53
2023-02-23T07:05:43.447Z,79.94
2023-02-23T07:08:11.327Z,79.59
2023-02-23T07:10:39.497Z,79.72
2023-02-23T07:13:07.335Z,82.27
2023-02-23T07:15:41.759Z,80.49
2023-02-23T07:18:09.708Z,80.41
2023-02-23T07:20:38.009Z,79.98
2023-02-23T07:23:05.885Z,79.80
2023-02-23T07:25:33.763Z,79.19
2023-02-23T07:28:02.720Z,80.58
2023-02-23T07:30:30.595Z,80.66
2023-02-23T07:32:58.488Z,81.24
2023-02-23T07:35:26.459Z,81.37
2023-02-23T07:37:55.750Z,79.14
2023-02-23T07:40:24.157Z,81.16
2023-02-23T07:42:52.551Z,78.96
2023-02-23T07:45:20.470Z,79.94
2023-02-23T07:47:48.843Z,80.55
2023-02-23T07:50:16.996Z,78.06
2023-02-23T07:52:45.007Z,79.23
2023-02-23T07:55:13.208Z,78.36
2023-02-23T07:57:44.475Z,78.91
2023-02-23T08:00:13.134Z,77.89
2023-02-23T08:02:41.048Z,77.21
2023-02-23T08:05:09.194Z,80.29
2023-02-23T08:07:37.611Z,78.46
2023-02-23T08:10:06.272Z,75.89
2023-02-23T08:12:34.682Z,76.34
2023-02-23T08:15:13.948Z,77.55
2023-02-23T08:17:41.922Z,76.73
2023-02-23T08:20:11.054Z,76.45
2023-02-23T08:22:49.475Z,76.16
2023-02-23T08:25:18.517Z,74.04
2023-02-23T08:27:47.191Z,72.84
2023-02-23T08:30:15.751Z,73.71
2023-02-23T08:32:43.661Z,75.04
2023-02-23T08:35:12.018Z,75.11
2023-02-23T08:37:41.866Z,76.13
2023-02-23T08:40:12.175Z,76.61
2023-02-23T08:42:43.421Z,77.26
2023-02-23T08:45:13.985Z,75.32
2023-02-23T08:47:42.233Z,75.00
2023-02-23T08:50:12.578Z,73.48
2023-02-23T08:52:41.992Z,73.72
2023-02-23T08:55:11.741Z,71.89
2023-02-23T08:57:39.859Z,74.77
2023-02-23T09:00:14.137Z,72.76
2023-02-23T09:02:48.113Z,70.80
2023-02-23T09:05:17.587Z,69.77
2023-02-23T09:07:48.998Z,69.02
2023-02-23T09:10:20.472Z,70.01
2023-02-23T09:12:51.343Z,71.01
2023-02-23T09:15:19.697Z,69.10
2023-02-23T09:17:48.150Z,69.16
2023-02-23T09:20:17.675Z,71.40
2023-02-23T09:22:48.724Z,69.58
2023-02-23T09:25:22.485Z,68.84
2023-02-23T09:27:59.615Z,68.88
2023-02-23T09:30:28.272Z,68.73
2023-02-23T09:32:56.445Z,69.80
2023-02-23T09:35:25.531Z,69.34
2023-02-23T09:37:56.274Z,69.02
2023-02-23T09:40:39.156Z,68.94
2023-02-23T09:43:33.719Z,67.22
2023-02-23T09:47:04.380Z,67.98
2023-02-23T09:49:39.568Z,67.77
2023-02-23T09:52:28.502Z,68.71
2023-02-23T09:54:58.084Z,68.51
2023-02-23T09:57:43.729Z,69.82
2023-02-23T10:00:27.720Z,69.21
2023-02-23T10:03:12.619Z,69.76
2023-02-23T10:05:54.286Z,67.90
2023-02-23T10:09:26.599Z,67.04
2023-02-23T10:12:33.749Z,67.05
2023-02-23T10:15:43.890Z,65.79
2023-02-23T10:18:47.411Z,65.52
2023-02-23T10:21:26.832Z,66.56
2023-02-23T10:24:32.978Z,65.52
2023-02-23T10:27:18.571Z,65.34
2023-02-23T10:30:00.650Z,64.21
2023-02-23T10:32:50.226Z,64.79
2023-02-23T10:35:24.557Z,65.21
2023-02-23T10:37:54.372Z,64.89
2023-02-23T10:40:29.096Z,63.51
2023-02-23T10:42:58.657Z,64.21
2023-02-23T10:45:29.792Z,63.21
2023-02-23T10:48:24.860Z,64.55
2023-02-23T10:51:02.718Z,66.70
2023-02-23T10:53:38.974Z,64.38
2023-02-23T10:56:14.594Z,63.52
2023-02-23T10:59:02.465Z,63.81
2023-02-23T11:02:00.478Z,62.92
2023-02-23T11:04:35.814Z,63.86
2023-02-23T11:07:29.640Z,63.06
2023-02-23T11:10:00.310Z,63.01
2023-02-23T11:12:41.845Z,62.17
2023-02-23T11:15:32.024Z,61.20
2023-02-23T11:18:07.569Z,61.78
2023-02-23T11:20:41.659Z,60.18
2023-02-23T11:23:34.318Z,61.90
2023-02-23T11:26:35.874Z,61.90
2023-02-23T11:29:28.278Z,60.96
2023-02-23T11:31:59.277Z,60.65
2023-02-23T11:34:35.429Z,61.42
2023-02-23T11:37:14.410Z,61.23
2023-02-23T11:40:04.037Z,61.28
2023-02-23T11:42:33.431Z,60.62
2023-02-23T11:45:20.848Z,61.80
2023-02-23T11:47:59.402Z,61.35
2023-02-23T11:50:36.407Z,60.46
2023-02-23T11:53:15.351Z,60.94
2023-02-23T11:55:55.676Z,62.44
2023-02-23T11:58:40.443Z,61.90
2023-02-23T12:01:14.187Z,60.28
2023-02-23T12:04:00.262Z,62.99
2023-02-23T12:06:41.853Z,61.14
2023-02-23T12:09:34.084Z,61.24
2023-02-23T12:12:18.922Z,60.08
2023-02-23T12:15:09.235Z,60.33
2023-02-23T12:17:50.092Z,60.74
2023-02-23T12:20:41.187Z,60.74
2023-02-23T12:23:28.420Z,60.21
2023-02-23T12:26:22.725Z,59.20
2023-02-23T12:29:06.245Z,61.51
2023-02-23T12:32:08.969Z,59.89
2023-02-23T12:35:06.313Z,59.89
2023-02-23T12:37:58.581Z,58.72
2023-02-23T12:40:36.636Z,59.86
2023-02-23T12:43:37.604Z,62.02
2023-02-23T12:46:22.106Z,60.87
2023-02-23T12:49:43.314Z,60.78
2023-02-23T12:52:26.985Z,60.50
2023-02-23T12:54:55.909Z,60.80
2023-02-23T12:58:25.864Z,61.32
2023-02-23T13:01:05.978Z,61.89
2023-02-23T13:03:50.651Z,61.19
2023-02-23T13:06:39.116Z,59.88
2023-02-23T13:10:16.180Z,61.69
2023-02-23T13:13:16.752Z,62.03
2023-02-23T13:16:10.511Z,59.72
2023-02-23T13:19:15.169Z,60.45
2023-02-23T13:21:53.850Z,61.48
2023-02-23T13:24:36.538Z,60.16
2023-02-23T13:27:23.423Z,61.18
2023-02-23T13:29:54.969Z,61.21
2023-02-23T13:32:32.230Z,61.79
2023-02-23T13:35:08.352Z,62.08
2023-02-23T13:38:08.209Z,61.88
2023-02-23T13:40:44.357Z,61.60
2023-02-23T13:43:49.189Z,61.53
2023-02-23T13:46:53.794Z,61.80
2023-02-23T13:49:47.123Z,60.68
2023-02-23T13:52:41.459Z,62.67
2023-02-23T13:55:32.628Z,64.17
2023-02-23T13:58:22.402Z,62.82
2023-02-23T14:01:43.612Z,62.45
2023-02-23T14:04:34.426Z,63.07
2023-02-23T14:07:11.480Z,63.66
2023-02-23T14:09:56.536Z,63.29
2023-02-23T14:13:06.312Z,62.97
2023-02-23T14:15:40.395Z,63.95
2023-02-23T14:18:26.316Z,64.57
2023-02-23T14:21:29.305Z,65.00
2023-02-23T14:24:19.335Z,65.69
2023-02-23T14:27:41.445Z,64.78
2023-02-23T14:30:19.810Z,64.99
2023-02-23T14:32:50.525Z,65.35
2023-02-23T14:35:33.760Z,66.88
2023-02-23T14:38:47.578Z,68.62
2023-02-23T14:41:28.281Z,67.91
2023-02-23T14:44:43.295Z,67.01
2023-02-23T14:47:20.698Z,67.80
2023-02-23T14:50:18.905Z,67.50
2023-02-23T14:52:47.505Z,67.77
2023-02-23T14:55:29.411Z,67.56
2023-02-23T14:57:58.917Z,69.10
2023-02-23T15:00:43.853Z,68.43
2023-02-23T15:03:13.848Z,68.07
2023-02-23T15:05:57.564Z,68.18
2023-02-23T15:08:30.046Z,68.02
2023-02-23T15:11:18.889Z,67.53
2023-02-23T15:13:52.178Z,68.52
2023-02-23T15:16:36.288Z,69.65
2023-02-23T15:19:05.441Z,68.73
2023-02-23T15:21:35.761Z,68.90
2023-02-23T15:24:22.924Z,68.04
2023-02-23T15:26:52.042Z,67.88
2023-02-23T15:29:30.594Z,68.91
2023-02-23T15:32:24.752Z,68.48
2023-02-23T15:34:55.884Z,68.73
2023-02-23T15:40:23.842Z,69.64
2023-02-23T15:43:00.597Z,69.29
2023-02-23T15:45:48.813Z,69.61
2023-02-23T15:48:27.883Z,68.92
2023-02-23T15:50:57.835Z,70.38
2023-02-23T15:53:41.025Z,71.23
2023-02-23T15:56:20.186Z,70.07
2023-02-23T15:58:57.280Z,71.69
2023-02-23T16:01:30.354Z,70.60
2023-02-23T16:04:08.325Z,70.99
2023-02-23T16:06:53.216Z,71.72
2023-02-23T16:09:21.674Z,70.76
2023-02-23T16:12:20.534Z,71.66
2023-02-23T16:15:03.343Z,71.50
2023-02-23T16:17:52.183Z,71.25
2023-02-23T16:20:42.558Z,72.12
2023-02-23T16:23:59.386Z,71.98
2023-02-23T16:26:48.003Z,71.97
2023-02-23T16:29:44.408Z,72.30
2023-02-23T16:32:20.831Z,73.09
2023-02-23T16:35:01.754Z,72.79
2023-02-23T16:37:29.930Z,73.26
2023-02-23T16:39:57.896Z,73.64
2023-02-23T16:42:33.563Z,74.28
2023-02-23T16:45:02.163Z,73.55
2023-02-23T16:47:48.238Z,73.34
2023-02-23T16:50:24.301Z,74.03
2023-02-23T16:52:53.630Z,74.48
2023-02-23T16:55:28.723Z,74.55
2023-02-23T16:58:07.821Z,75.20
2023-02-23T17:00:35.860Z,74.59
2023-02-23T17:03:06.667Z,75.32
2023-02-23T17:05:34.605Z,75.93
2023-02-23T17:08:02.858Z,75.43
2023-02-23T17:10:34.841Z,76.06
2023-02-23T17:13:18.791Z,75.49
2023-02-23T17:15:51.864Z,76.08
2023-02-23T17:20:55.303Z,76.73
2023-02-23T17:23:29.700Z,76.46
2023-02-23T17:25:58.354Z,76.73
2023-02-23T17:28:26.267Z,76.54
2023-02-23T17:30:54.298Z,76.02
2023-02-23T17:33:26.989Z,76.71
2023-02-23T17:35:55.238Z,77.11
2023-02-23T17:38:23.154Z,76.76
2023-02-23T17:40:51.001Z,76.41
2023-02-23T17:43:21.557Z,76.61
2023-02-23T17:45:50.579Z,76.54
2023-02-23T17:48:18.650Z,77.21
2023-02-23T17:50:46.488Z,77.54
2023-02-23T17:53:14.398Z,77.46
2023-02-23T17:55:42.368Z,77.48
2023-02-23T17:58:10.795Z,78.27
2023-02-23T18:00:39.742Z,78.17
2023-02-23T18:03:07.694Z,77.51
2023-02-23T18:05:35.920Z,77.68
2023-02-23T18:08:03.778Z,77.40
2023-02-23T18:10:31.636Z,78.22
2023-02-23T18:12:59.455Z,77.95
2023-02-23T18:15:27.439Z,78.04
2023-02-23T18:17:57.437Z,79.07
2023-02-23T18:20:26.164Z,79.73
2023-02-23T18:22:54.086Z,79.33
2023-02-23T18:25:31.108Z,79.10
2023-02-23T18:27:59.696Z,79.28
2023-02-23T18:30:27.622Z,80.08
2023-02-23T18:33:00.525Z,79.54
2023-02-23T18:35:33.196Z,79.20
2023-02-23T18:38:01.493Z,79.03
2023-02-23T18:40:29.492Z,78.61
2023-02-23T18:42:58.966Z,78.59
2023-02-23T18:45:27.658Z,78.99
2023-02-23T18:47:56.307Z,78.22
2023-02-23T18:50:26.260Z,78.36
2023-02-23T18:52:56.583Z,80.35
2023-02-23T18:55:24.756Z,79.86
2023-02-23T18:57:53.081Z,79.97
2023-02-23T19:00:21.740Z,79.98
2023-02-23T19:02:49.769Z,79.56
2023-02-23T19:05:20.760Z,82.55
2023-02-23T19:07:49.556Z,81.35
2023-02-23T19:10:17.428Z,80.54
2023-02-23T19:12:45.322Z,80.41
2023-02-23T19:15:13.397Z,83.27
2023-02-23T19:17:41.394Z,83.06
2023-02-23T19:20:13.726Z,82.27
2023-02-23T19:22:42.799Z,81.44
2023-02-23T19:25:14.193Z,81.45
2023-02-23T19:27:42.877Z,81.05
2023-02-23T19:30:12.406Z,80.23
2023-02-23T19:32:40.614Z,80.45
2023-02-23T19:35:14.772Z,80.24
2023-02-23T19:37:52.701Z,80.85
2023-02-23T19:40:23.867Z,79.79
2023-02-23T19:42:52.965Z,79.69
2023-02-23T19:45:21.799Z,80.66
2023-02-23T19:47:53.240Z,80.28
2023-02-23T19:50:21.560Z,80.42
2023-02-23T19:52:49.923Z,80.63
2023-02-23T19:55:20.178Z,81.22
2023-02-23T19:57:48.168Z,83.09
2023-02-23T20:00:16.798Z,83.65
2023-02-23T20:02:44.713Z,83.77
2023-02-23T20:05:16.269Z,84.73
2023-02-23T20:07:44.601Z,82.91
2023-02-23T20:10:16.108Z,82.04
2023-02-23T20:12:44.508Z,82.58
2023-02-23T20:15:14.817Z,83.25
2023-02-23T20:17:42.785Z,82.89
2023-02-23T20:20:11.858Z,83.13
2023-02-23T20:22:43.178Z,83.05
2023-02-23T20:25:16.356Z,83.58
2023-02-23T20:27:44.824Z,83.46
2023-02-23T20:30:13.700Z,82.91
2023-02-23T20:32:41.707Z,83.90
2023-02-23T20:35:12.890Z,84.53
2023-02-23T20:37:42.117Z,83.85
2023-02-23T20:40:17.471Z,83.00
2023-02-23T20:42:48.313Z,83.04
2023-02-23T20:45:21.750Z,82.92
2023-02-23T20:47:53.560Z,83.28
2023-02-23T20:50:33.969Z,83.48
2023-02-23T20:53:05.410Z,83.86
2023-02-23T20:55:33.457Z,83.40
2023-02-23T20:58:01.633Z,83.17
2023-02-23T21:00:32.083Z,83.17
2023-02-23T21:03:02.680Z,82.65
2023-02-23T21:05:40.408Z,83.07
2023-02-23T21:08:10.486Z,81.55
2023-02-23T21:10:40.118Z,81.29
2023-02-23T21:13:12.321Z,80.71
2023-02-23T21:15:42.551Z,80.19
2023-02-23T21:18:11.083Z,81.88
2023-02-23T21:20:40.091Z,81.15
2023-02-23T21:23:08.015Z,81.08
2023-02-23T21:25:35.975Z,80.83
2023-02-23T21:28:03.880Z,81.50
2023-02-23T21:30:31.875Z,80.82
2023-02-23T21:33:00.193Z,79.97
2023-02-23T21:35:28.240Z,80.91
2023-02-23T21:37:56.928Z,82.62
2023-02-23T21:40:24.919Z,81.18
2023-02-23T21:42:53.242Z,81.07
2023-02-23T21:45:21.404Z,81.44
2023-02-23T21:47:49.639Z,80.75
2023-02-23T21:50:19.665Z,82.05
2023-02-23T21:52:48.716Z,80.48
2023-02-23T21:55:21.916Z,79.76
2023-02-23T21:57:51.759Z,81.14
2023-02-23T22:00:21.523Z,81.41
2023-02-23T22:02:50.697Z,80.75
2023-02-23T22:05:19.677Z,80.75
2023-02-23T22:07:51.435Z,81.27
2023-02-23T22:10:24.843Z,81.96
2023-02-23T22:12:56.746Z,81.64
2023-02-23T22:15:27.871Z,81.86
2023-02-23T22:17:56.576Z,80.57
2023-02-23T22:20:25.960Z,79.40
2023-02-23T22:22:53.961Z,81.40
2023-02-23T22:25:22.030Z,81.34
2023-02-23T22:27:50.007Z,81.36
2023-02-23T22:30:20.430Z,80.90
2023-02-23T22:32:48.659Z,82.76
2023-02-23T22:35:16.868Z,81.53
2023-02-23T22:37:47.386Z,81.07
2023-02-23T22:40:18.209Z,81.44
2023-02-23T22:42:48.404Z,81.37
2023-02-23T22:45:17.959Z,80.26
2023-02-23T22:47:45.992Z,80.26
2023-02-23T22:50:17.813Z,81.07
2023-02-23T22:52:47.011Z,80.09
2023-02-23T22:55:14.984Z,79.59
2023-02-23T22:57:43.066Z,80.09
2023-02-23T23:00:20.737Z,79.94
2023-02-23T23:02:48.920Z,80.94
2023-02-23T23:05:17.791Z,81.23
2023-02-23T23:07:48.678Z,81.57
2023-02-23T23:10:18.740Z,80.24
2023-02-23T23:12:46.965Z,79.98
2023-02-23T23:15:17.023Z,79.71
2023-02-23T23:17:48.347Z,80.22
2023-02-23T23:20:25.536Z,79.72
2023-02-23T23:22:56.992Z,79.03
2023-02-23T23:25:25.092Z,80.23
2023-02-23T23:27:53.006Z,79.60
2023-02-23T23:30:21.276Z,80.17
2023-02-23T23:32:50.346Z,79.18
2023-02-23T23:35:21.789Z,80.44
2023-02-23T23:37:52.878Z,78.84
2023-02-23T23:40:24.256Z,81.80
2023-02-23T23:42:52.561Z,81.20
2023-02-23T23:45:24.215Z,82.78
2023-02-23T23:47:52.353Z,81.85
2023-02-23T23:50:26.414Z,80.63
2023-02-23T23:52:54.438Z,81.38
2023-02-23T23:55:22.308Z,82.04
2023-02-23T23:57:50.145Z,81.48
